createdAt,value
2023-01-26T00:01:37.148Z,102178.53
2023-01-26T00:04:04.704Z,102173.69
2023-01-26T00:06:32.295Z,102175.84
2023-01-26T00:08:59.825Z,102165.25
2023-01-26T00:11:28.042Z,102154.16
2023-01-26T00:13:57.815Z,102161.19
2023-01-26T00:16:25.863Z,102156.81
2023-01-26T00:18:54.204Z,102145.66
2023-01-26T00:21:23.213Z,102142.75
2023-01-26T00:23:51.545Z,102138.47
2023-01-26T00:26:24.888Z,102136.03
2023-01-26T00:28:53.694Z,102129.41
2023-01-26T00:31:25.339Z,102123.69
2023-01-26T00:33:55.256Z,102125.78
2023-01-26T00:36:22.865Z,102126.56
2023-01-26T00:38:50.273Z,102131.19
2023-01-26T00:41:36.191Z,102122.13
2023-01-26T00:44:03.810Z,102120.50
2023-01-26T00:46:31.385Z,102111.78
2023-01-26T00:49:01.133Z,102108.53
2023-01-26T00:51:28.811Z,102104.16
2023-01-26T00:53:57.260Z,102101.56
2023-01-26T00:56:28.162Z,102097.88
2023-01-26T00:58:55.709Z,102098.75
2023-01-26T01:01:23.203Z,102097.28
2023-01-26T01:03:52.285Z,102094.31
2023-01-26T01:06:19.785Z,102084.69
2023-01-26T01:08:47.576Z,102078.13
2023-01-26T01:11:15.309Z,102086.69
2023-01-26T01:13:43.193Z,102086.47
2023-01-26T01:16:13.705Z,102088.56
2023-01-26T01:18:41.356Z,102083.22
2023-01-26T01:21:12.452Z,102090.34
2023-01-26T01:23:40.599Z,102093.81
2023-01-26T01:26:09.333Z,102092.91
2023-01-26T01:28:37.064Z,102099.88
2023-01-26T01:31:10.190Z,102101.66
2023-01-26T01:33:38.855Z,102099.06
2023-01-26T01:36:09.248Z,102105.72
2023-01-26T01:38:37.019Z,102116.72
2023-01-26T01:41:04.738Z,102105.63
2023-01-26T01:43:32.341Z,102117.38
2023-01-26T01:46:02.113Z,102106.13
2023-01-26T01:48:37.091Z,102108.78
2023-01-26T01:51:14.653Z,102114.38
2023-01-26T01:53:46.774Z,102118.31
2023-01-26T01:56:22.041Z,102121.16
2023-01-26T01:58:54.158Z,102113.72
2023-01-26T02:01:21.666Z,102108.88
2023-01-26T02:03:51.934Z,102105.63
2023-01-26T02:06:25.128Z,102109.03
2023-01-26T02:08:57.170Z,102103.69
2023-01-26T02:11:33.988Z,102103.59
2023-01-26T02:14:04.944Z,102094.38
2023-01-26T02:16:32.386Z,102091.78
2023-01-26T02:19:00.099Z,102092.84
2023-01-26T02:21:28.007Z,102094.78
2023-01-26T02:24:25.483Z,102070.59
2023-01-26T02:26:54.829Z,102061.06
2023-01-26T02:29:23.421Z,102057.97
2023-01-26T02:31:53.728Z,102044.53
2023-01-26T02:34:21.912Z,102047.66
2023-01-26T02:36:59.020Z,102044.13
2023-01-26T02:39:32.392Z,102054.16
2023-01-26T02:42:18.489Z,102053.94
2023-01-26T02:44:46.353Z,102042.63
2023-01-26T02:47:16.328Z,102040.84
2023-01-26T02:49:53.046Z,102034.19
2023-01-26T02:52:25.912Z,102022.63
2023-01-26T02:55:19.724Z,102029.47
2023-01-26T02:57:47.380Z,102033.69
2023-01-26T03:00:19.353Z,102031.91
2023-01-26T03:02:48.284Z,102019.88
2023-01-26T03:05:16.185Z,102030.28
2023-01-26T03:07:43.792Z,102039.75
2023-01-26T03:10:13.059Z,102035.41
2023-01-26T03:12:40.846Z,102041.66
2023-01-26T03:15:27.738Z,102035.72
2023-01-26T03:18:25.982Z,102033.53
2023-01-26T03:21:12.079Z,102029.16
2023-01-26T03:23:58.354Z,102023.31
2023-01-26T03:26:46.344Z,102025.84
2023-01-26T03:29:14.323Z,102019.69
2023-01-26T03:31:43.444Z,102026.72
2023-01-26T03:34:11.464Z,102029.25
2023-01-26T03:36:39.743Z,102026.00
2023-01-26T03:39:32.693Z,102026.81
2023-01-26T03:42:19.564Z,102023.25
2023-01-26T03:45:05.616Z,102018.22
2023-01-26T03:47:52.767Z,102015.41
2023-01-26T03:50:39.492Z,102009.34
2023-01-26T03:53:36.882Z,102019.03
2023-01-26T03:56:41.362Z,102005.19
2023-01-26T03:59:15.557Z,102007.03
2023-01-26T04:02:05.342Z,102006.16
2023-01-26T04:04:52.413Z,102001.28
2023-01-26T04:07:42.487Z,102000.56
2023-01-26T04:10:10.683Z,101996.09
2023-01-26T04:12:38.334Z,101999.50
2023-01-26T04:15:35.923Z,101995.06
2023-01-26T04:18:27.011Z,101989.00
2023-01-26T04:21:14.508Z,101990.69
2023-01-26T04:23:44.513Z,101982.84
2023-01-26T04:26:11.938Z,101988.09
2023-01-26T04:28:39.596Z,101978.63
2023-01-26T04:31:06.976Z,101988.09
2023-01-26T04:33:36.764Z,101970.94
2023-01-26T04:36:06.052Z,101980.88
2023-01-26T04:38:35.220Z,101980.06
2023-01-26T04:41:02.817Z,101980.16
2023-01-26T04:43:33.312Z,101973.34
2023-01-26T04:46:07.300Z,101969.19
2023-01-26T04:48:36.933Z,101977.44
2023-01-26T04:51:12.297Z,101970.84
2023-01-26T04:53:40.295Z,101981.63
2023-01-26T04:56:13.604Z,101978.56
2023-01-26T04:58:41.336Z,101978.25
2023-01-26T05:01:09.027Z,101979.19
2023-01-26T05:03:36.631Z,101975.81
2023-01-26T05:06:04.844Z,101981.16
2023-01-26T05:08:32.398Z,101977.00
2023-01-26T05:10:59.725Z,101979.91
2023-01-26T05:13:42.730Z,101971.31
2023-01-26T05:16:23.142Z,101967.97
2023-01-26T05:18:54.169Z,101972.00
2023-01-26T05:21:40.896Z,101976.19
2023-01-26T05:24:09.267Z,101974.59
2023-01-26T05:27:16.854Z,101970.22
2023-01-26T05:29:45.335Z,101973.91
2023-01-26T05:32:12.962Z,101969.72
2023-01-26T05:34:40.814Z,101966.38
2023-01-26T05:37:08.298Z,101981.53
2023-01-26T05:39:36.684Z,101974.31
2023-01-26T05:42:06.197Z,101981.75
2023-01-26T05:44:34.618Z,101970.47
2023-01-26T05:47:11.084Z,101980.19
2023-01-26T05:49:41.657Z,101988.84
2023-01-26T05:52:12.170Z,101976.56
2023-01-26T05:54:42.233Z,101975.22
2023-01-26T05:57:10.580Z,101980.69
2023-01-26T05:59:41.929Z,101975.75
2023-01-26T06:02:11.984Z,101978.63
2023-01-26T06:04:41.779Z,101979.50
2023-01-26T06:07:10.398Z,101977.50
2023-01-26T06:09:43.376Z,101984.84
2023-01-26T06:12:21.377Z,101989.13
2023-01-26T06:14:58.738Z,101976.03
2023-01-26T06:17:42.288Z,101992.50
2023-01-26T06:20:14.822Z,101996.56
2023-01-26T06:22:47.784Z,101999.59
2023-01-26T06:25:16.378Z,101998.34
2023-01-26T06:27:44.024Z,101989.84
2023-01-26T06:30:19.355Z,102003.47
2023-01-26T06:32:47.843Z,102001.44
2023-01-26T06:35:15.553Z,101993.72
2023-01-26T06:37:44.129Z,101995.28
2023-01-26T06:40:12.167Z,101997.00
2023-01-26T06:42:39.861Z,101997.69
2023-01-26T06:45:08.357Z,102007.94
2023-01-26T06:47:36.766Z,102005.34
2023-01-26T06:50:05.515Z,102003.78
2023-01-26T06:52:36.392Z,101997.69
2023-01-26T06:55:38.371Z,101998.50
2023-01-26T06:58:24.692Z,102000.41
2023-01-26T07:01:04.695Z,102009.84
2023-01-26T07:03:35.187Z,102011.88
2023-01-26T07:06:02.864Z,102012.03
2023-01-26T07:08:30.413Z,102017.06
2023-01-26T07:10:57.849Z,102013.03
2023-01-26T07:13:25.089Z,102013.53
2023-01-26T07:15:52.481Z,102008.16
2023-01-26T07:18:21.255Z,102016.59
2023-01-26T07:20:48.696Z,102013.19
2023-01-26T07:23:16.032Z,102018.22
2023-01-26T07:25:43.772Z,102018.97
2023-01-26T07:30:39.912Z,102024.75
2023-01-26T07:33:07.574Z,102023.97
2023-01-26T07:35:34.843Z,102024.53
2023-01-26T07:38:04.122Z,102022.75
2023-01-26T07:40:31.528Z,102034.03
2023-01-26T07:43:01.928Z,102033.22
2023-01-26T07:45:55.116Z,102026.31
2023-01-26T07:48:24.554Z,102028.97
2023-01-26T07:50:52.102Z,102043.41
2023-01-26T07:53:19.554Z,102032.84
2023-01-26T07:55:47.559Z,102044.47
2023-01-26T07:58:15.643Z,102049.81
2023-01-26T08:00:43.124Z,102053.41
2023-01-26T08:03:10.504Z,102054.25
2023-01-26T08:05:38.636Z,102059.69
2023-01-26T08:08:06.584Z,102051.44
2023-01-26T08:10:34.000Z,102063.88
2023-01-26T08:13:01.898Z,102064.63
2023-01-26T08:15:29.619Z,102085.25
2023-01-26T08:17:57.204Z,102082.81
2023-01-26T08:20:24.736Z,102081.91
2023-01-26T08:22:52.048Z,102082.88
2023-01-26T08:25:19.250Z,102089.56
2023-01-26T08:27:46.694Z,102087.16
2023-01-26T08:30:16.175Z,102092.97
2023-01-26T08:32:43.783Z,102110.53
2023-01-26T08:35:11.122Z,102093.38
2023-01-26T08:37:38.767Z,102101.03
2023-01-26T08:40:07.770Z,102108.91
2023-01-26T08:42:35.297Z,102101.84
2023-01-26T08:45:02.995Z,102120.16
2023-01-26T08:47:30.537Z,102120.38
2023-01-26T08:49:57.824Z,102126.09
2023-01-26T08:52:25.395Z,102116.06
2023-01-26T08:54:52.867Z,102124.09
2023-01-26T08:57:20.680Z,102137.00
2023-01-26T08:59:48.085Z,102140.69
2023-01-26T09:02:15.557Z,102158.13
2023-01-26T09:04:42.955Z,102151.91
2023-01-26T09:07:12.607Z,102147.59
2023-01-26T09:09:40.951Z,102164.41
2023-01-26T09:12:08.541Z,102166.38
2023-01-26T09:14:36.086Z,102178.78
2023-01-26T09:17:03.726Z,102170.09
2023-01-26T09:19:31.314Z,102187.53
2023-01-26T09:21:58.749Z,102185.63
2023-01-26T09:24:26.310Z,102184.13
2023-01-26T09:26:53.914Z,102182.28
2023-01-26T09:29:21.395Z,102189.56
2023-01-26T09:31:49.058Z,102203.75
2023-01-26T09:34:16.726Z,102203.34
2023-01-26T09:36:44.374Z,102202.16
2023-01-26T09:39:11.715Z,102214.47
2023-01-26T09:42:16.813Z,102203.53
2023-01-26T09:44:52.587Z,102198.81
2023-01-26T09:47:30.322Z,102208.38
2023-01-26T09:50:11.149Z,102210.63
2023-01-26T09:52:57.730Z,102201.25
2023-01-26T09:55:25.556Z,102208.94
2023-01-26T09:58:01.279Z,102195.88
2023-01-26T10:00:36.719Z,102206.31
2023-01-26T10:03:33.217Z,102190.88
2023-01-26T10:06:29.150Z,102198.41
2023-01-26T10:09:24.259Z,102209.19
2023-01-26T10:11:56.537Z,102199.09
2023-01-26T10:14:45.491Z,102198.00
2023-01-26T10:17:31.113Z,102205.78
2023-01-26T10:20:17.450Z,102194.31
2023-01-26T10:22:47.913Z,102205.84
2023-01-26T10:25:21.497Z,102216.44
2023-01-26T10:27:48.984Z,102215.28
2023-01-26T10:30:17.235Z,102213.84
2023-01-26T10:32:47.511Z,102220.88
2023-01-26T10:35:25.865Z,102222.88
2023-01-26T10:37:53.683Z,102221.97
2023-01-26T10:40:21.812Z,102211.66
2023-01-26T10:42:59.500Z,102227.47
2023-01-26T10:45:33.090Z,102227.81
2023-01-26T10:48:07.044Z,102231.22
2023-01-26T10:50:35.162Z,102227.81
2023-01-26T10:53:05.011Z,102232.06
2023-01-26T10:55:36.448Z,102235.00
2023-01-26T10:58:04.193Z,102224.13
2023-01-26T11:00:34.555Z,102231.38
2023-01-26T11:03:14.260Z,102218.09
2023-01-26T11:05:43.591Z,102216.34
2023-01-26T11:08:37.351Z,102224.00
2023-01-26T11:11:08.093Z,102220.44
2023-01-26T11:13:35.603Z,102205.81
2023-01-26T11:16:20.715Z,102221.66
2023-01-26T11:19:00.837Z,102211.25
2023-01-26T11:21:36.510Z,102221.66
2023-01-26T11:24:05.148Z,102211.91
2023-01-26T11:27:02.407Z,102214.81
2023-01-26T11:29:30.336Z,102207.19
2023-01-26T11:32:31.895Z,102206.94
2023-01-26T11:34:59.387Z,102198.56
2023-01-26T11:37:30.184Z,102199.84
2023-01-26T11:40:11.225Z,102191.28
2023-01-26T11:43:01.375Z,102198.19
2023-01-26T11:45:40.917Z,102194.25
2023-01-26T11:48:33.403Z,102202.44
2023-01-26T11:51:20.941Z,102197.75
2023-01-26T11:54:28.933Z,102203.03
2023-01-26T11:57:05.496Z,102205.91
2023-01-26T11:59:47.127Z,102202.75
2023-01-26T12:02:35.898Z,102190.66
2023-01-26T12:05:26.231Z,102190.47
2023-01-26T12:07:59.647Z,102200.28
2023-01-26T12:10:36.765Z,102188.34
2023-01-26T12:13:13.925Z,102195.41
2023-01-26T12:15:47.833Z,102191.97
2023-01-26T12:18:42.406Z,102186.72
2023-01-26T12:21:20.527Z,102189.84
2023-01-26T12:23:59.191Z,102186.28
2023-01-26T12:26:32.363Z,102190.38
2023-01-26T12:29:23.057Z,102196.28
2023-01-26T12:31:56.388Z,102188.34
2023-01-26T12:34:28.710Z,102215.06
2023-01-26T12:37:30.067Z,102188.00
2023-01-26T12:40:09.639Z,102177.31
2023-01-26T12:42:52.371Z,102173.22
2023-01-26T12:45:30.973Z,102186.13
2023-01-26T12:48:07.691Z,102189.31
2023-01-26T12:50:39.861Z,102175.94
2023-01-26T12:53:24.395Z,102165.25
2023-01-26T12:56:03.653Z,102175.94
2023-01-26T12:58:38.113Z,102171.88
2023-01-26T13:01:10.624Z,102171.44
2023-01-26T13:03:46.115Z,102169.09
2023-01-26T13:06:13.646Z,102161.16
2023-01-26T13:09:04.487Z,102170.69
2023-01-26T13:11:53.357Z,102169.16
2023-01-26T13:14:36.763Z,102155.97
2023-01-26T13:17:16.504Z,102149.28
2023-01-26T13:19:44.152Z,102153.81
2023-01-26T13:22:23.823Z,102163.06
2023-01-26T13:24:59.631Z,102154.88
2023-01-26T13:27:39.947Z,102156.16
2023-01-26T13:30:26.131Z,102159.16
2023-01-26T13:33:20.230Z,102154.38
2023-01-26T13:35:50.283Z,102141.75
2023-01-26T13:38:37.404Z,102152.88
2023-01-26T13:41:09.614Z,102159.69
2023-01-26T13:43:45.896Z,102145.78
2023-01-26T13:46:34.169Z,102145.25
2023-01-26T13:49:02.395Z,102146.44
2023-01-26T13:51:32.020Z,102141.63
2023-01-26T13:54:05.882Z,102144.72
2023-01-26T13:56:41.800Z,102148.50
2023-01-26T13:59:09.393Z,102147.19
2023-01-26T14:01:48.618Z,102159.03
2023-01-26T14:04:21.613Z,102139.69
2023-01-26T14:07:10.167Z,102152.13
2023-01-26T14:09:52.517Z,102138.03
2023-01-26T14:12:27.589Z,102138.69
2023-01-26T14:15:01.172Z,102142.94
2023-01-26T14:17:34.284Z,102149.53
2023-01-26T14:20:03.769Z,102153.66
2023-01-26T14:22:31.334Z,102153.47
2023-01-26T14:24:58.844Z,102154.38
2023-01-26T14:27:26.460Z,102150.88
2023-01-26T14:29:53.943Z,102150.22
2023-01-26T14:32:25.458Z,102160.75
2023-01-26T14:34:54.748Z,102149.72
2023-01-26T14:37:22.861Z,102147.31
2023-01-26T14:40:10.336Z,102160.75
2023-01-26T14:42:40.129Z,102159.03
2023-01-26T14:45:13.508Z,102166.59
2023-01-26T14:47:45.493Z,102162.53
2023-01-26T14:50:23.437Z,102153.81
2023-01-26T14:52:51.074Z,102159.81
2023-01-26T14:55:30.645Z,102170.34
2023-01-26T14:57:59.307Z,102163.34
2023-01-26T15:00:31.412Z,102166.78
2023-01-26T15:03:02.174Z,102180.81
2023-01-26T15:05:42.356Z,102180.69
2023-01-26T15:08:24.799Z,102185.53
2023-01-26T15:11:19.831Z,102188.25
2023-01-26T15:13:52.335Z,102190.78
2023-01-26T15:16:23.151Z,102188.25
2023-01-26T15:19:02.683Z,102206.94
2023-01-26T15:21:40.212Z,102198.06
2023-01-26T15:24:14.955Z,102206.78
2023-01-26T15:26:43.813Z,102209.72
2023-01-26T15:29:32.647Z,102208.59
2023-01-26T15:32:00.711Z,102209.66
2023-01-26T15:34:32.958Z,102215.69
2023-01-26T15:37:01.925Z,102216.63
2023-01-26T15:39:30.523Z,102210.47
2023-01-26T15:42:07.886Z,102219.00
2023-01-26T15:44:35.429Z,102209.66
2023-01-26T15:47:06.736Z,102208.88
2023-01-26T15:49:34.074Z,102213.97
2023-01-26T15:52:01.463Z,102209.56
2023-01-26T15:54:28.809Z,102219.47
2023-01-26T15:56:55.967Z,102220.44
2023-01-26T15:59:23.355Z,102213.56
2023-01-26T16:01:50.688Z,102221.91
2023-01-26T16:04:18.191Z,102221.84
2023-01-26T16:06:45.501Z,102220.16
2023-01-26T16:09:13.030Z,102206.47
2023-01-26T16:11:47.794Z,102208.34
2023-01-26T16:14:17.607Z,102215.34
2023-01-26T16:16:45.237Z,102225.69
2023-01-26T16:19:20.578Z,102212.75
2023-01-26T16:21:54.039Z,102224.66
2023-01-26T16:24:21.602Z,102226.69
2023-01-26T16:26:51.351Z,102221.19
2023-01-26T16:29:18.660Z,102234.13
2023-01-26T16:31:46.032Z,102230.81
2023-01-26T16:34:13.289Z,102225.31
2023-01-26T16:36:40.742Z,102237.31
2023-01-26T16:39:08.075Z,102242.91
2023-01-26T16:41:35.692Z,102248.06
2023-01-26T16:44:03.968Z,102241.25
2023-01-26T16:46:32.294Z,102242.34
2023-01-26T16:48:59.769Z,102244.63
2023-01-26T16:51:30.880Z,102245.91
2023-01-26T16:53:58.688Z,102238.31
2023-01-26T16:56:26.116Z,102249.41
2023-01-26T16:58:53.503Z,102243.53
2023-01-26T17:01:24.338Z,102247.59
2023-01-26T17:03:52.246Z,102247.91
2023-01-26T17:06:20.452Z,102245.81
2023-01-26T17:08:49.213Z,102255.59
2023-01-26T17:11:27.590Z,102251.75
2023-01-26T17:13:56.885Z,102248.75
2023-01-26T17:16:29.624Z,102253.13
2023-01-26T17:18:57.338Z,102254.63
2023-01-26T17:21:26.857Z,102260.78
2023-01-26T17:23:57.559Z,102257.88
2023-01-26T17:26:25.174Z,102260.97
2023-01-26T17:28:56.480Z,102259.97
2023-01-26T17:31:25.386Z,102267.47
2023-01-26T17:33:54.632Z,102272.00
2023-01-26T17:36:22.318Z,102275.13
2023-01-26T17:38:49.739Z,102275.25
2023-01-26T17:41:17.671Z,102281.09
2023-01-26T17:43:45.505Z,102275.72
2023-01-26T17:46:15.908Z,102274.91
2023-01-26T17:48:45.315Z,102273.13
2023-01-26T17:51:21.105Z,102277.44
2023-01-26T17:53:54.304Z,102271.22
2023-01-26T17:56:22.574Z,102271.81
2023-01-26T17:58:52.101Z,102272.72
2023-01-26T18:01:21.796Z,102277.69
2023-01-26T18:03:49.903Z,102274.56
2023-01-26T18:06:17.854Z,102280.66
2023-01-26T18:08:45.796Z,102278.03
2023-01-26T18:11:15.099Z,102282.91
2023-01-26T18:13:43.123Z,102287.22
2023-01-26T18:16:15.074Z,102292.41
2023-01-26T18:18:42.786Z,102291.81
2023-01-26T18:21:22.727Z,102294.72
2023-01-26T18:23:52.558Z,102295.28
2023-01-26T18:26:22.775Z,102288.91
2023-01-26T18:28:50.756Z,102286.91
2023-01-26T18:31:23.203Z,102297.38
2023-01-26T18:33:50.936Z,102286.91
2023-01-26T18:36:20.576Z,102286.09
2023-01-26T18:38:53.797Z,102296.03
2023-01-26T18:41:23.221Z,102301.50
2023-01-26T18:43:52.179Z,102298.09
2023-01-26T18:46:20.845Z,102295.34
2023-01-26T18:48:48.531Z,102287.13
2023-01-26T18:51:18.314Z,102293.44
2023-01-26T18:53:45.809Z,102291.16
2023-01-26T18:56:16.312Z,102301.69
2023-01-26T18:58:44.119Z,102302.13
2023-01-26T19:01:14.604Z,102301.31
2023-01-26T19:03:47.451Z,102301.25
2023-01-26T19:06:20.120Z,102304.41
2023-01-26T19:08:55.503Z,102306.19
2023-01-26T19:11:23.029Z,102297.31
2023-01-26T19:13:50.321Z,102304.19
2023-01-26T19:16:17.798Z,102307.41
2023-01-26T19:18:45.134Z,102307.31
2023-01-26T19:21:12.700Z,102313.56
2023-01-26T19:23:42.670Z,102306.28
2023-01-26T19:26:15.365Z,102302.84
2023-01-26T19:28:42.960Z,102306.13
2023-01-26T19:31:11.069Z,102301.16
2023-01-26T19:33:39.318Z,102309.22
2023-01-26T19:36:07.990Z,102308.31
2023-01-26T19:38:39.347Z,102298.25
2023-01-26T19:41:07.066Z,102303.50
2023-01-26T19:43:34.531Z,102310.34
2023-01-26T19:46:02.849Z,102304.91
2023-01-26T19:48:30.180Z,102308.31
2023-01-26T19:50:59.352Z,102313.75
2023-01-26T19:53:27.936Z,102303.38
2023-01-26T19:55:55.453Z,102314.44
2023-01-26T19:58:22.686Z,102306.88
2023-01-26T20:00:50.046Z,102303.09
2023-01-26T20:03:18.881Z,102307.16
2023-01-26T20:05:46.479Z,102301.97
2023-01-26T20:08:13.924Z,102297.59
2023-01-26T20:10:41.264Z,102295.97
2023-01-26T20:13:08.553Z,102295.22
2023-01-26T20:15:36.828Z,102294.03
2023-01-26T20:18:04.416Z,102294.41
2023-01-26T20:20:31.988Z,102300.34
2023-01-26T20:22:59.654Z,102304.72
2023-01-26T20:25:27.664Z,102298.34
2023-01-26T20:27:55.151Z,102307.31
2023-01-26T20:30:23.043Z,102307.84
2023-01-26T20:32:53.985Z,102309.09
2023-01-26T20:35:21.783Z,102312.66
2023-01-26T20:37:49.259Z,102307.53
2023-01-26T20:40:16.821Z,102310.19
2023-01-26T20:42:44.046Z,102300.19
2023-01-26T20:45:12.301Z,102310.94
2023-01-26T20:47:41.050Z,102311.41
2023-01-26T20:50:09.427Z,102307.69
2023-01-26T20:52:37.422Z,102312.22
2023-01-26T20:55:08.137Z,102311.19
2023-01-26T20:57:35.664Z,102312.78
2023-01-26T21:00:03.334Z,102312.00
2023-01-26T21:02:30.716Z,102310.44
2023-01-26T21:04:58.302Z,102310.72
2023-01-26T21:07:28.288Z,102311.00
2023-01-26T21:09:55.880Z,102308.34
2023-01-26T21:12:23.376Z,102309.69
2023-01-26T21:14:50.713Z,102313.63
2023-01-26T21:17:22.523Z,102318.59
2023-01-26T21:19:50.155Z,102325.94
2023-01-26T21:22:17.611Z,102317.34
2023-01-26T21:24:45.038Z,102320.53
2023-01-26T21:27:12.441Z,102320.28
2023-01-26T21:29:40.854Z,102336.53
2023-01-26T21:32:08.499Z,102322.06
2023-01-26T21:34:36.052Z,102341.81
2023-01-26T21:37:03.362Z,102333.53
2023-01-26T21:39:30.852Z,102336.88
2023-01-26T21:41:59.198Z,102327.56
2023-01-26T21:44:29.159Z,102329.28
2023-01-26T21:47:03.035Z,102320.66
2023-01-26T21:49:30.762Z,102321.78
2023-01-26T21:52:16.899Z,102318.22
2023-01-26T21:54:44.336Z,102314.38
2023-01-26T21:57:30.725Z,102318.59
2023-01-26T21:59:58.236Z,102315.75
2023-01-26T22:02:25.516Z,102314.47
2023-01-26T22:04:52.796Z,102314.13
2023-01-26T22:07:20.033Z,102307.63
2023-01-26T22:09:47.499Z,102308.78
2023-01-26T22:12:15.599Z,102311.47
2023-01-26T22:14:43.096Z,102298.78
2023-01-26T22:17:10.375Z,102304.13
2023-01-26T22:19:37.871Z,102301.75
2023-01-26T22:22:05.409Z,102294.63
2023-01-26T22:24:32.880Z,102288.69
2023-01-26T22:27:00.213Z,102289.44
2023-01-26T22:29:27.555Z,102290.63
2023-01-26T22:31:54.899Z,102293.50
2023-01-26T22:34:22.597Z,102283.78
2023-01-26T22:36:50.009Z,102284.13
2023-01-26T22:39:17.447Z,102286.59
2023-01-26T22:41:45.461Z,102274.44
2023-01-26T22:44:12.919Z,102268.34
2023-01-26T22:46:40.396Z,102274.31
2023-01-26T22:49:07.784Z,102274.97
2023-01-26T22:51:38.340Z,102274.09
2023-01-26T22:54:06.297Z,102279.94
2023-01-26T22:56:34.430Z,102274.69
2023-01-26T22:59:02.232Z,102276.97
2023-01-26T23:01:32.259Z,102273.47
2023-01-26T23:04:00.789Z,102286.59
2023-01-26T23:06:29.008Z,102287.75
2023-01-26T23:08:58.387Z,102282.22
2023-01-26T23:11:28.567Z,102289.59
2023-01-26T23:13:58.994Z,102285.16
2023-01-26T23:16:27.314Z,102283.88
2023-01-26T23:18:57.166Z,102282.69
2023-01-26T23:21:26.041Z,102287.50
2023-01-26T23:23:53.515Z,102289.13
2023-01-26T23:26:21.347Z,102283.56
2023-01-26T23:28:49.084Z,102289.53
2023-01-26T23:31:18.268Z,102288.69
2023-01-26T23:33:46.532Z,102286.03
2023-01-26T23:36:15.106Z,102290.41
2023-01-26T23:38:43.941Z,102287.63
2023-01-26T23:41:12.202Z,102292.75
2023-01-26T23:43:40.368Z,102295.81
2023-01-26T23:46:08.853Z,102302.94
2023-01-26T23:48:36.293Z,102301.44
2023-01-26T23:51:07.375Z,102306.56
2023-01-26T23:53:35.374Z,102307.59
2023-01-26T23:56:28.962Z,102307.53
2023-01-26T23:58:56.401Z,102305.88
